Time;durP1;ratioP1;P1;durP2;ratioP2;P2;SDS_P1;SDS_P2;PMS_P1;PMS_P2;Temp;Humidity;BMP_temperature;BMP_pressure;BME280_temperature;BME280_humidity;BME280_pressure;Samples;Min_cycle;Max_cycle;Signal;HPM_P1;HPM_P2
2020/12/29 00:02:01;;;;;;;5.03;1.00;;;;;;;6.87;73.24;97130.63;120236;1154;22967;-80
2020/12/29 00:04:30;;;;;;;7.07;1.17;;;;;;;6.89;73.69;97128.07;120678;1153;25966;-80
2020/12/29 00:06:59;;;;;;;6.80;1.37;;;;;;;6.88;73.13;97125.84;120774;1154;25005;-80
2020/12/29 00:09:29;;;;;;;5.33;0.80;;;;;;;6.89;73.64;97119.03;120599;1154;23044;-80
2020/12/29 00:11:58;;;;;;;3.95;0.90;;;;;;;6.91;73.20;97127.56;120632;1154;23106;-79
2020/12/29 00:14:27;;;;;;;5.53;0.97;;;;;;;6.92;73.62;97134.59;120578;1154;22917;-80
2020/12/29 00:16:56;;;;;;;7.93;1.07;;;;;;;6.92;73.54;97127.02;120361;1154;22955;-80
2020/12/29 00:19:27;;;;;;;5.63;1.10;;;;;;;6.93;73.22;97119.46;120583;1154;22984;-80
2020/12/29 00:21:58;;;;;;;4.30;0.90;;;;;;;6.94;73.43;97127.24;120731;1154;22952;-81
2020/12/29 00:24:26;;;;;;;;;;;;;;;6.96;73.32;97129.48;120724;1154;24638;-80
2020/12/29 00:26:55;;;;;;;3.93;0.90;;;;;;;6.95;73.69;97120.41;120683;1156;23411;-80
2020/12/29 00:29:24;;;;;;;6.83;1.23;;;;;;;6.94;73.26;97124.47;120501;1154;25970;-80
2020/12/29 00:31:53;;;;;;;8.63;1.07;;;;;;;6.95;73.44;97122.45;120878;1154;22989;-81
2020/12/29 00:34:22;;;;;;;8.03;1.20;;;;;;;6.95;73.65;97117.63;120619;1154;22948;-79
2020/12/29 00:36:53;;;;;;;8.03;1.20;;;;;;;6.96;73.33;97112.84;120680;1157;22960;-80
2020/12/29 00:39:22;;;;;;;5.50;1.20;;;;;;;6.98;73.34;97113.06;120593;1155;24632;-80
2020/12/29 00:41:51;;;;;;;6.10;1.00;;;;;;;6.98;73.26;97111.04;120657;1154;23062;-80
2020/12/29 00:44:20;;;;;;;6.90;1.10;;;;;;;6.98;73.15;97102.72;120580;1154;23078;-80
2020/12/29 00:46:49;;;;;;;4.00;0.90;;;;;;;6.98;73.27;97111.04;120727;1154;22970;-80
2020/12/29 00:49:18;;;;;;;4.70;0.70;;;;;;;7.00;73.34;97113.28;120516;1154;22980;-80
2020/12/29 00:51:47;;;;;;;5.10;0.73;;;;;;;6.99;73.50;97114.56;120431;1156;23809;-80
2020/12/29 00:54:16;;;;;;;4.47;0.80;;;;;;;7.00;73.37;97116.05;120506;1154;23004;-77
2020/12/29 00:56:45;;;;;;;3.50;0.80;;;;;;;7.00;73.53;97114.03;120625;1154;22973;-80
2020/12/29 00:59:14;;;;;;;2.85;0.60;;;;;;;7.01;73.28;97117.56;120642;1155;22924;-80
2020/12/29 01:01:43;;;;;;;1.70;0.50;;;;;;;7.01;73.37;97121.09;120473;1157;24407;-80
2020/12/29 01:04:12;;;;;;;4.63;0.80;;;;;;;7.00;73.77;97116.05;120540;1154;24364;-80
2020/12/29 01:06:41;;;;;;;3.40;0.60;;;;;;;7.01;74.03;97114.78;120587;1154;22952;-81
2020/12/29 01:09:10;;;;;;;2.17;0.50;;;;;;;6.99;73.78;97109.78;120462;1154;22940;-81
2020/12/29 01:11:38;;;;;;;3.13;0.70;;;;;;;6.98;74.28;97107.52;120424;1156;23128;-80
2020/12/29 01:14:07;;;;;;;2.73;0.40;;;;;;;6.95;74.43;97105.81;120452;1154;22981;-80
2020/12/29 01:16:37;;;;;;;2.77;0.60;;;;;;;6.92;74.52;97110.39;120599;1156;22917;-81
2020/12/29 01:19:06;;;;;;;2.20;0.60;;;;;;;6.88;75.24;97112.73;120561;1154;22951;-79
2020/12/29 01:21:35;;;;;;;1.90;0.40;;;;;;;6.86;75.07;97114.53;120402;1154;23028;-80
2020/12/29 01:24:04;;;;;;;2.10;0.37;;;;;;;6.84;75.37;97111.53;120564;1154;22955;-80
2020/12/29 01:26:32;;;;;;;1.50;0.30;;;;;;;6.82;75.18;97108.55;120556;1154;23465;-80
2020/12/29 01:29:02;;;;;;;3.40;0.60;;;;;;;6.78;75.29;97097.77;120626;1154;23060;-80
2020/12/29 01:31:32;;;;;;;3.72;0.60;;;;;;;6.75;75.69;97106.38;120367;1154;23003;-80
2020/12/29 01:34:01;;;;;;;4.00;0.70;;;;;;;6.74;75.60;97113.22;120311;1154;28007;-80
2020/12/29 01:36:30;;;;;;;3.30;0.70;;;;;;;6.70;76.33;97104.46;120756;1154;22935;-81
2020/12/29 01:38:59;;;;;;;3.70;0.60;;;;;;;6.67;75.96;97097.19;120479;1154;23069;-80
2020/12/29 01:41:32;;;;;;;3.03;0.53;;;;;;;6.65;76.37;97105.28;120438;1154;25042;-80
2020/12/29 01:44:14;;;;;;;3.43;0.57;;;;;;;6.64;76.11;97101.78;120589;1154;23436;-80
2020/12/29 01:46:44;;;;;;;2.47;0.50;;;;;;;6.63;76.83;97100.27;120539;1154;22940;-80
2020/12/29 01:49:13;;;;;;;4.07;0.90;;;;;;;6.62;76.45;97098.04;121040;1154;22956;-80
2020/12/29 01:51:42;;;;;;;4.17;0.77;;;;;;;6.61;76.63;97088.22;120397;1154;26534;-80
2020/12/29 01:54:11;;;;;;;5.27;0.70;;;;;;;6.58;76.43;97092.06;120418;1154;25985;-80
2020/12/29 01:56:42;;;;;;;4.03;0.70;;;;;;;6.56;77.00;97087.02;120473;1154;22924;-81
2020/12/29 01:59:12;;;;;;;;;;;;;;;6.55;76.87;97091.08;120870;1154;22926;-81
2020/12/29 02:01:43;;;;;;;4.47;0.65;;;;;;;6.54;77.27;97098.64;120428;1154;24028;-80
2020/12/29 02:04:11;;;;;;;;;;;;;;;6.52;76.93;97095.66;120469;1154;23073;-81
2020/12/29 02:06:40;;;;;;;5.87;0.70;;;;;;;6.52;76.90;97100.44;120550;1154;24352;-81
2020/12/29 02:09:11;;;;;;;3.83;0.60;;;;;;;6.50;76.80;97097.45;120496;1154;26427;-81
2020/12/29 02:11:41;;;;;;;3.93;0.70;;;;;;;6.49;77.50;97090.42;120417;1154;22952;-81
2020/12/29 02:14:09;;;;;;;3.33;0.80;;;;;;;6.49;77.44;97093.20;120473;1154;23106;-81
2020/12/29 02:16:39;;;;;;;3.47;0.63;;;;;;;6.45;77.27;97093.52;120564;1154;23106;-83
2020/12/29 02:19:09;;;;;;;3.12;0.70;;;;;;;6.45;77.26;97098.30;120399;1154;22949;-83
2020/12/29 02:21:38;;;;;;;4.53;0.70;;;;;;;6.42;77.38;97099.34;120380;1154;22956;-80
2020/12/29 02:24:08;;;;;;;4.80;0.70;;;;;;;6.41;77.32;97089.55;120560;1154;22933;-80
2020/12/29 02:26:37;;;;;;;4.05;0.50;;;;;;;6.40;77.67;97090.80;120471;1154;26385;-81
2020/12/29 02:29:07;;;;;;;4.60;0.50;;;;;;;6.37;77.73;97081.52;120483;1154;23078;-81
2020/12/29 02:31:35;;;;;;;;;;;;;;;6.37;77.86;97089.10;120375;1154;22971;-82
2020/12/29 02:34:05;;;;;;;3.07;0.50;;;;;;;6.35;77.70;97092.38;120426;1154;21649;-82
2020/12/29 02:36:34;;;;;;;3.70;0.60;;;;;;;6.34;77.60;97090.14;120376;1154;23097;-82
2020/12/29 02:39:03;;;;;;;2.80;0.47;;;;;;;6.31;77.89;97093.98;120454;1154;23138;-83
2020/12/29 02:41:32;;;;;;;1.80;0.40;;;;;;;6.30;77.95;97086.92;120347;1154;23102;-82
2020/12/29 02:44:01;;;;;;;2.60;0.40;;;;;;;6.28;77.74;97087.45;120227;1154;26494;-82
2020/12/29 02:46:30;;;;;;;2.83;0.50;;;;;;;6.27;78.31;97090.77;120344;1154;22993;-81
2020/12/29 02:48:59;;;;;;;3.50;0.60;;;;;;;6.25;78.42;97093.28;120350;1154;23059;-81
2020/12/29 02:51:27;;;;;;;1.73;0.40;;;;;;;6.24;78.23;97095.33;120482;1154;27508;-82
2020/12/29 02:53:56;;;;;;;2.43;0.50;;;;;;;6.23;78.24;97098.60;120469;1154;22964;-80
2020/12/29 02:56:25;;;;;;;2.77;0.60;;;;;;;6.22;78.72;97099.89;120740;1154;23076;-80
2020/12/29 02:58:54;;;;;;;1.70;0.30;;;;;;;6.20;78.84;97110.75;120400;1154;23050;-80
2020/12/29 03:01:27;;;;;;;1.70;0.30;;;;;;;6.16;78.37;97111.05;120483;1154;23059;-80
2020/12/29 03:03:56;;;;;;;1.97;0.33;;;;;;;6.17;78.96;97120.09;120347;1154;22942;-80
2020/12/29 03:06:25;;;;;;;1.07;0.30;;;;;;;6.13;79.26;97122.41;120506;1154;23109;-81
2020/12/29 03:08:55;;;;;;;2.90;0.30;;;;;;;6.12;78.86;97109.86;120814;1154;26034;-80
2020/12/29 03:11:29;;;;;;;1.65;0.50;;;;;;;6.10;79.22;97121.46;120361;1154;23034;-80
2020/12/29 03:13:59;;;;;;;1.80;0.25;;;;;;;6.09;79.06;97119.20;120667;1154;22942;-80
2020/12/29 03:16:28;;;;;;;1.07;0.30;;;;;;;6.07;79.42;97122.50;120609;1154;23033;-79
2020/12/29 03:18:57;;;;;;;3.57;0.40;;;;;;;6.04;79.45;97123.53;120478;1154;23110;-79
2020/12/29 03:21:26;;;;;;;2.93;0.33;;;;;;;6.02;79.19;97123.30;120411;1152;23080;-79
2020/12/29 03:23:55;;;;;;;0.97;0.20;;;;;;;6.02;79.67;97128.84;120345;1154;22927;-80
2020/12/29 03:26:25;;;;;;;2.10;0.50;;;;;;;5.99;79.60;97137.45;120477;1154;23000;-80
2020/12/29 03:28:54;;;;;;;;;;;;;;;5.98;79.30;97138.74;120558;1154;22952;-80
2020/12/29 03:31:23;;;;;;;1.90;0.30;;;;;;;5.95;79.98;97140.53;120474;1154;21741;-79
2020/12/29 03:33:52;;;;;;;2.57;0.50;;;;;;;5.93;79.76;97143.08;120480;1154;22943;-80
2020/12/29 03:36:21;;;;;;;2.27;0.40;;;;;;;5.91;80.06;97150.40;120748;1154;23125;-80
2020/12/29 03:38:49;;;;;;;1.53;0.27;;;;;;;5.88;80.10;97149.41;120379;1154;22942;-80
2020/12/29 03:41:21;;;;;;;2.70;0.43;;;;;;;5.89;79.77;97158.48;120717;1154;22972;-80
2020/12/29 03:43:50;;;;;;;2.43;0.40;;;;;;;5.89;80.21;97156.47;120584;1154;22940;-80
2020/12/29 03:46:19;;;;;;;2.47;0.50;;;;;;;5.89;80.27;97152.94;120519;1154;23134;-80
2020/12/29 03:48:47;;;;;;;2.00;0.45;;;;;;;5.91;80.44;97158.70;120453;1154;23115;-79
2020/12/29 03:51:16;;;;;;;2.20;0.50;;;;;;;5.95;80.10;97159.91;120442;1154;23601;-79
2020/12/29 03:53:45;;;;;;;2.65;0.40;;;;;;;5.94;80.34;97152.86;120314;1154;27340;-79
2020/12/29 03:56:14;;;;;;;2.47;0.40;;;;;;;5.95;80.39;97154.38;120379;1154;22942;-79
2020/12/29 03:58:43;;;;;;;1.40;0.30;;;;;;;5.96;80.29;97150.32;120518;1154;22935;-79
2020/12/29 04:01:12;;;;;;;4.83;0.40;;;;;;;5.96;80.52;97144.78;121067;1154;23211;-77
2020/12/29 04:03:43;;;;;;;2.07;0.30;;;;;;;5.93;80.32;97150.63;120036;1154;24623;-80
2020/12/29 04:06:13;;;;;;;1.40;0.40;;;;;;;5.92;79.94;97162.98;120479;1154;27567;-80
2020/12/29 04:08:41;;;;;;;2.80;0.40;;;;;;;5.91;80.43;97153.92;120414;1154;27253;-80
2020/12/29 04:11:11;;;;;;;2.85;0.20;;;;;;;5.89;80.44;97162.00;120467;1154;27348;-79
2020/12/29 04:13:41;;;;;;;3.83;0.50;;;;;;;5.88;80.59;97159.73;120526;1154;27231;-79
2020/12/29 04:16:10;;;;;;;2.93;0.40;;;;;;;5.87;80.34;97159.00;120210;1154;23053;-79
2020/12/29 04:18:40;;;;;;;2.80;0.40;;;;;;;5.90;80.65;97157.22;120146;1154;23421;-77
2020/12/29 04:21:11;;;;;;;4.03;0.50;;;;;;;5.91;80.42;97155.94;120371;1154;22942;-79
2020/12/29 04:23:40;;;;;;;2.90;0.37;;;;;;;5.88;80.61;97157.72;120508;1154;25906;-80
2020/12/29 04:26:12;;;;;;;1.90;0.30;;;;;;;5.84;80.35;97151.73;120998;1154;23330;-79
2020/12/29 04:28:41;;;;;;;2.30;0.40;;;;;;;5.84;81.04;97162.80;120421;1153;22992;-79
2020/12/29 04:31:15;;;;;;;1.50;0.30;;;;;;;5.86;81.01;97165.05;120447;1154;22974;-79
2020/12/29 04:33:44;;;;;;;1.30;0.30;;;;;;;5.86;80.91;97167.81;120312;1154;22910;-81
2020/12/29 04:36:13;;;;;;;2.23;0.57;;;;;;;5.82;80.72;97168.08;120420;1154;23043;-80
2020/12/29 04:38:42;;;;;;;3.47;0.50;;;;;;;5.80;80.55;97162.31;120628;1154;22948;-79
2020/12/29 04:41:11;;;;;;;4.77;0.50;;;;;;;5.79;81.04;97160.08;120434;1154;22940;-79
2020/12/29 04:43:40;;;;;;;1.97;0.50;;;;;;;5.79;80.76;97162.84;120403;1154;26433;-79
2020/12/29 04:46:08;;;;;;;2.65;0.40;;;;;;;5.78;81.04;97156.55;120155;1154;23077;-80
2020/12/29 04:48:38;;;;;;;2.85;0.50;;;;;;;5.82;80.89;97139.64;120426;1154;22956;-80
2020/12/29 04:51:09;;;;;;;3.63;0.60;;;;;;;5.85;81.02;97153.24;120657;1154;23823;-80
2020/12/29 04:53:37;;;;;;;;;;;;;;;5.85;80.54;97153.24;120491;1154;22954;-79
2020/12/29 04:56:08;;;;;;;3.33;0.60;;;;;;;5.86;80.94;97151.95;120477;1154;21695;-81
2020/12/29 04:58:38;;;;;;;2.67;0.60;;;;;;;5.87;81.01;97147.94;120643;1154;22981;-81
2020/12/29 05:01:07;;;;;;;;;;;;;;;5.91;80.96;97151.16;120507;1154;24372;-81
2020/12/29 05:03:47;;;;;;;2.47;0.60;;;;;;;5.93;80.96;97156.16;120823;1154;21585;-80
2020/12/29 05:06:16;;;;;;;7.65;1.98;;;;;;;5.91;80.96;97155.94;121277;1154;26383;-78
2020/12/29 05:08:46;;;;;;;10.70;4.47;;;;;;;5.89;80.98;97156.47;120629;1152;23053;-80
2020/12/29 05:11:16;;;;;;;7.80;2.15;;;;;;;5.86;80.83;97168.56;120450;1154;23043;-81
2020/12/29 05:13:45;;;;;;;3.02;0.93;;;;;;;5.83;80.77;97174.38;120469;1154;22908;-80
2020/12/29 05:16:15;;;;;;;6.77;1.53;;;;;;;5.85;81.11;97182.94;120452;1154;23110;-81
2020/12/29 05:18:45;;;;;;;4.70;1.07;;;;;;;5.87;81.03;97180.39;120299;1154;22964;-80
2020/12/29 05:21:14;;;;;;;5.25;1.10;;;;;;;5.93;80.95;97183.84;120797;1153;23103;-80
2020/12/29 05:23:43;;;;;;;5.85;0.80;;;;;;;5.90;80.46;97190.44;120310;1154;22973;-80
2020/12/29 05:26:12;;;;;;;5.03;0.97;;;;;;;5.89;81.03;97178.61;120517;1154;23068;-80
2020/12/29 05:28:41;;;;;;;3.40;0.75;;;;;;;5.88;81.11;97190.94;120394;1154;22967;-81
2020/12/29 05:31:10;;;;;;;4.43;1.23;;;;;;;5.89;81.27;97191.70;120426;1154;22994;-81
2020/12/29 05:33:40;;;;;;;5.80;1.10;;;;;;;5.88;80.78;97195.72;120328;1154;23439;-81
2020/12/29 05:36:10;;;;;;;4.83;1.12;;;;;;;5.88;81.08;97199.25;120402;1153;23083;-81
2020/12/29 05:38:43;;;;;;;10.03;1.30;;;;;;;5.83;80.45;97202.06;120367;1154;23218;-81
2020/12/29 05:41:22;;;;;;;6.05;1.15;;;;;;;5.80;80.84;97203.09;120594;1154;23951;-80
2020/12/29 05:44:01;;;;;;;10.47;1.10;;;;;;;5.78;81.04;97206.38;120360;1154;23240;-80
2020/12/29 05:46:30;;;;;;;5.30;1.30;;;;;;;5.77;80.97;97217.98;120522;1154;22949;-79
2020/12/29 05:49:00;;;;;;;5.27;1.17;;;;;;;5.73;81.03;97218.28;120441;1154;28106;-79
2020/12/29 05:51:29;;;;;;;6.70;1.10;;;;;;;5.73;80.92;97223.81;120500;1154;24205;-80
2020/12/29 05:54:03;;;;;;;5.20;1.20;;;;;;;5.72;81.05;97236.89;120539;1154;22945;-80
2020/12/29 05:56:34;;;;;;;6.77;1.20;;;;;;;5.69;81.03;97239.92;120459;1154;22987;-81
2020/12/29 05:59:05;;;;;;;5.53;1.42;;;;;;;5.65;80.79;97256.07;120524;1154;24376;-80
2020/12/29 06:01:40;;;;;;;6.87;1.37;;;;;;;5.58;80.96;97265.72;120495;1154;23133;-82
2020/12/29 06:04:10;;;;;;;5.63;1.20;;;;;;;5.54;81.08;97276.32;120814;1154;23109;-83
2020/12/29 06:06:44;;;;;;;4.15;1.10;;;;;;;5.52;81.07;97281.63;120583;1154;22949;-82
2020/12/29 06:09:14;;;;;;;7.63;1.30;;;;;;;5.53;81.22;97287.88;120601;1154;23051;-82
2020/12/29 06:11:55;;;;;;;8.60;1.60;;;;;;;5.50;81.22;97288.93;120839;1152;23004;-82
2020/12/29 06:14:25;;;;;;;;;;;;;;;5.49;81.15;97293.70;120643;1154;22920;-80
2020/12/29 06:16:55;;;;;;;8.45;1.82;;;;;;;5.48;81.13;97294.23;121064;1154;21600;-82
2020/12/29 06:19:28;;;;;;;8.33;2.10;;;;;;;5.49;80.81;97295.72;120641;1154;22974;-80
2020/12/29 06:22:06;;;;;;;9.40;2.25;;;;;;;5.47;81.12;97303.78;120843;1154;23106;-81
2020/12/29 06:24:38;;;;;;;11.50;3.10;;;;;;;5.45;80.86;97304.30;120846;1154;26495;-82
2020/12/29 06:27:08;;;;;;;12.50;3.10;;;;;;;5.41;81.34;97309.37;120931;1154;23193;-81
2020/12/29 06:29:39;;;;;;;14.00;3.80;;;;;;;5.39;80.87;97319.44;120992;1154;25874;-81
2020/12/29 06:32:10;;;;;;;;;;;;;;;5.34;81.22;97325.78;120888;1154;22961;-82
2020/12/29 06:34:40;;;;;;;15.10;4.07;;;;;;;5.30;81.11;97339.11;120670;1154;21581;-82
2020/12/29 06:37:20;;;;;;;15.95;4.08;;;;;;;5.25;81.17;97345.45;121015;1154;22977;-82
2020/12/29 06:39:52;;;;;;;15.68;4.53;;;;;;;5.21;81.04;97359.55;121051;1154;22942;-81
2020/12/29 06:42:24;;;;;;;19.20;5.80;;;;;;;5.17;80.73;97372.91;121059;1154;23571;-79
2020/12/29 06:44:57;;;;;;;16.70;6.00;;;;;;;5.13;80.82;97377.20;121316;1154;22965;-81
2020/12/29 06:47:28;;;;;;;16.63;5.33;;;;;;;5.09;80.71;97388.51;120769;1154;22888;-80
2020/12/29 06:49:56;;;;;;;;;;;;;;;5.04;80.82;97394.08;120994;1154;22945;-82
2020/12/29 06:52:33;;;;;;;17.60;4.93;;;;;;;4.97;80.82;97398.12;120615;1154;21617;-82
2020/12/29 06:55:03;;;;;;;18.37;5.50;;;;;;;4.89;80.96;97411.73;120588;1154;23080;-81
2020/12/29 06:57:50;;;;;;;21.62;6.22;;;;;;;4.85;80.82;97416.02;120647;1154;22925;-80
2020/12/29 07:00:22;;;;;;;17.83;5.70;;;;;;;4.82;80.89;97419.82;120749;1153;22981;-81
2020/12/29 07:02:53;;;;;;;20.45;6.75;;;;;;;4.79;80.84;97437.41;120679;1154;23030;-80
2020/12/29 07:05:24;;;;;;;19.90;6.25;;;;;;;4.75;80.82;97432.15;120722;1154;27231;-82
2020/12/29 07:07:58;;;;;;;19.50;6.95;;;;;;;4.73;80.84;97447.73;120732;1154;23026;-81
2020/12/29 07:10:36;;;;;;;23.55;8.65;;;;;;;4.68;80.67;97448.48;120795;1154;23028;-82
2020/12/29 07:13:08;;;;;;;22.95;8.00;;;;;;;4.61;80.58;97455.30;120644;1154;27492;-81
2020/12/29 07:15:46;;;;;;;21.85;8.40;;;;;;;4.56;80.75;97471.88;120828;1154;23015;-81
2020/12/29 07:18:21;;;;;;;27.37;9.80;;;;;;;4.51;80.86;97480.94;120762;1154;22965;-82
2020/12/29 07:20:51;;;;;;;25.33;8.77;;;;;;;4.48;80.53;97479.17;120781;1154;27279;-81
2020/12/29 07:23:20;;;;;;;;;;;;;;;4.45;80.63;97491.24;120762;1154;22948;-81
2020/12/29 07:25:51;;;;;;;29.10;10.00;;;;;;;4.42;80.57;97495.76;120729;1153;21576;-82
2020/12/29 07:28:23;;;;;;;27.20;9.73;;;;;;;4.38;80.37;97492.50;120772;1154;24872;-82
2020/12/29 07:30:53;;;;;;;26.47;9.90;;;;;;;4.37;80.57;97498.51;120609;1154;22985;-81
2020/12/29 07:33:25;;;;;;;27.83;9.30;;;;;;;4.34;80.31;97505.05;120531;1154;24363;-81
2020/12/29 07:35:55;;;;;;;17.10;5.55;;;;;;;4.31;80.42;97508.80;120768;1154;23828;-82
2020/12/29 07:38:25;;;;;;;22.67;8.00;;;;;;;4.29;80.26;97511.31;120545;1154;24571;-81
2020/12/29 07:40:55;;;;;;;19.60;6.97;;;;;;;4.27;80.35;97522.88;120663;1153;24574;-81
2020/12/29 07:43:23;;;;;;;19.57;6.67;;;;;;;4.23;80.34;97525.13;120516;1154;23023;-81
2020/12/29 07:45:52;;;;;;;24.45;6.75;;;;;;;4.17;80.19;97531.91;120652;1154;22967;-81
2020/12/29 07:48:21;;;;;;;19.83;6.33;;;;;;;4.14;80.12;97539.17;120575;1154;26433;-82
2020/12/29 07:50:59;;;;;;;22.97;6.90;;;;;;;4.10;80.13;97536.67;120665;1154;24604;-80
2020/12/29 07:53:29;;;;;;;24.55;7.85;;;;;;;4.08;80.37;97533.66;120564;1154;22943;-80
2020/12/29 07:55:59;;;;;;;24.90;7.17;;;;;;;4.08;80.19;97541.18;120660;1154;24578;-81
2020/12/29 07:58:27;;;;;;;21.70;7.05;;;;;;;4.07;79.98;97545.20;120863;1154;22926;-81
2020/12/29 08:01:02;;;;;;;24.00;7.65;;;;;;;4.07;80.29;97548.73;120650;1154;25558;-81
2020/12/29 08:03:31;;;;;;;22.97;7.70;;;;;;;4.07;80.51;97559.77;120732;1154;26152;-81
2020/12/29 08:06:00;;;;;;;22.93;7.60;;;;;;;4.07;80.22;97553.48;120635;1154;22981;-81
2020/12/29 08:08:29;;;;;;;22.50;8.23;;;;;;;4.07;80.29;97551.48;120564;1154;23134;-81
2020/12/29 08:10:58;;;;;;;21.77;8.23;;;;;;;4.04;80.18;97546.95;120614;1154;22967;-81
2020/12/29 08:13:27;;;;;;;17.60;6.45;;;;;;;4.06;80.25;97569.30;120616;1154;22960;-81
2020/12/29 08:15:56;;;;;;;21.60;6.77;;;;;;;4.05;80.25;97570.56;120761;1154;22932;-81
2020/12/29 08:18:25;;;;;;;20.93;5.73;;;;;;;4.01;79.85;97572.05;120982;1154;22961;-79
2020/12/29 08:20:57;;;;;;;19.60;6.17;;;;;;;3.99;79.85;97580.81;120831;1154;23059;-80
2020/12/29 08:23:27;;;;;;;17.97;5.23;;;;;;;3.98;79.99;97590.36;120797;1154;22949;-79
2020/12/29 08:25:57;;;;;;;16.27;4.67;;;;;;;3.98;80.11;97587.59;121048;1154;24999;-80
2020/12/29 08:28:28;;;;;;;13.65;3.92;;;;;;;3.98;79.66;97593.12;120819;1154;26331;-79
2020/12/29 08:30:57;;;;;;;;;;;;;;;3.98;79.62;97597.88;120897;1154;22952;-81
2020/12/29 08:33:28;;;;;;;12.93;3.37;;;;;;;3.97;79.23;97604.66;120778;1154;21570;-81
2020/12/29 08:36:01;;;;;;;15.20;4.63;;;;;;;3.97;79.42;97608.16;120202;1154;22935;-80
2020/12/29 08:39:00;;;;;;;14.50;3.60;;;;;;;3.99;79.23;97613.20;120670;1154;26382;-81
2020/12/29 08:41:38;;;;;;;13.20;3.70;;;;;;;3.99;79.36;97610.44;120851;1154;23706;-80
2020/12/29 08:44:09;;;;;;;15.23;3.87;;;;;;;3.99;79.47;97627.00;120869;1153;24474;-80
2020/12/29 08:46:38;;;;;;;15.03;3.37;;;;;;;3.99;78.61;97627.00;121275;1153;23710;-80
2020/12/29 08:49:08;;;;;;;14.17;4.07;;;;;;;3.98;79.14;97633.77;120693;1154;27398;-80
2020/12/29 08:51:41;;;;;;;16.52;4.58;;;;;;;4.00;78.90;97636.78;120802;1154;23019;-81
2020/12/29 08:54:12;;;;;;;17.30;4.70;;;;;;;4.02;78.98;97628.75;120897;1154;22940;-79
2020/12/29 08:56:42;;;;;;;16.40;4.80;;;;;;;4.03;78.75;97631.01;120820;1154;22996;-81
2020/12/29 08:59:12;;;;;;;16.42;4.85;;;;;;;4.06;78.55;97637.55;120010;1154;24576;-77
2020/12/29 09:01:43;;;;;;;17.50;4.50;;;;;;;4.08;78.77;97644.09;120098;1154;26411;-78
2020/12/29 09:04:27;;;;;;;16.83;4.43;;;;;;;4.12;78.94;97643.84;120110;1154;27253;-78
2020/12/29 09:07:01;;;;;;;14.07;3.80;;;;;;;4.18;78.39;97649.39;120396;1154;23358;-77
2020/12/29 09:09:32;;;;;;;15.17;3.87;;;;;;;4.23;78.75;97660.44;119999;1154;22940;-79
2020/12/29 09:12:13;;;;;;;16.93;4.00;;;;;;;4.28;78.79;97670.77;120229;1154;26101;-78
2020/12/29 09:14:53;;;;;;;17.13;5.20;;;;;;;4.36;78.69;97680.07;120395;1154;22970;-77
2020/12/29 09:17:24;;;;;;;16.53;4.60;;;;;;;4.42;78.34;97685.59;120678;1154;22944;-79
2020/12/29 09:20:25;;;;;;;11.30;3.00;;;;;;;4.45;78.02;97688.11;120442;1153;22952;-79
2020/12/29 09:23:12;;;;;;;13.60;3.53;;;;;;;4.50;78.18;97694.91;121100;1157;22969;-77
2020/12/29 09:25:43;;;;;;;12.63;3.23;;;;;;;4.51;77.93;97704.72;120810;1157;23196;-79
2020/12/29 09:28:19;;;;;;;16.87;4.37;;;;;;;4.52;77.58;97698.68;120490;1157;22946;-78
2020/12/29 09:30:59;;;;;;;15.70;4.30;;;;;;;4.54;77.78;97707.22;120948;1157;23139;-79
2020/12/29 09:33:32;;;;;;;15.80;4.10;;;;;;;4.56;77.65;97706.72;120868;1157;22957;-81
2020/12/29 09:36:04;;;;;;;14.97;4.40;;;;;;;4.58;77.67;97712.50;121332;1157;22953;-80
2020/12/29 09:38:34;;;;;;;16.37;4.83;;;;;;;4.60;77.92;97705.22;121054;1157;23509;-79
2020/12/29 09:41:05;;;;;;;14.63;4.10;;;;;;;4.62;77.77;97705.48;120451;1157;22984;-78
2020/12/29 09:43:34;;;;;;;11.55;3.52;;;;;;;4.66;77.57;97719.80;120739;1157;23005;-80
2020/12/29 09:46:03;;;;;;;14.87;4.00;;;;;;;4.67;77.58;97720.56;120479;1157;23708;-78
2020/12/29 09:48:32;;;;;;;12.63;3.97;;;;;;;4.69;77.41;97734.64;120538;1157;22946;-78
2020/12/29 09:51:00;;;;;;;14.67;4.13;;;;;;;;;;120842;1157;24637;-78
2020/12/29 09:53:29;;;;;;;11.57;3.47;;;;;;;4.75;77.76;97741.69;120469;1157;22955;-79
2020/12/29 09:55:58;;;;;;;15.40;4.40;;;;;;;4.79;77.63;97738.67;120872;1157;24328;-79
2020/12/29 09:58:27;;;;;;;17.73;4.90;;;;;;;4.82;77.60;97738.41;120933;1154;22924;-79
2020/12/29 10:00:56;;;;;;;15.07;3.87;;;;;;;4.90;77.58;97738.70;120354;1154;22958;-77
2020/12/29 10:03:25;;;;;;;14.75;4.65;;;;;;;4.94;77.33;97736.44;120299;1154;22960;-78
2020/12/29 10:05:55;;;;;;;13.53;4.20;;;;;;;5.01;77.14;97749.75;120797;1154;22881;-79
2020/12/29 10:08:24;;;;;;;14.70;3.80;;;;;;;5.05;76.98;97744.72;121081;1154;26373;-79
2020/12/29 10:10:53;;;;;;;15.07;4.40;;;;;;;5.11;77.12;97747.52;120962;1154;23073;-79
2020/12/29 10:13:22;;;;;;;14.10;3.90;;;;;;;5.14;77.09;97747.25;120438;1154;23908;-78
2020/12/29 10:15:52;;;;;;;15.33;4.37;;;;;;;5.17;77.04;97754.56;121057;1153;26410;-78
2020/12/29 10:18:21;;;;;;;16.23;4.12;;;;;;;5.21;76.75;97759.83;120703;1154;24498;-78
2020/12/29 10:20:52;;;;;;;19.60;5.55;;;;;;;5.25;76.85;97760.33;120679;1154;25903;-79
2020/12/29 10:23:21;;;;;;;16.00;4.50;;;;;;;5.30;76.88;97762.33;120583;1154;22952;-79
2020/12/29 10:25:50;;;;;;;14.70;4.60;;;;;;;5.36;77.05;97763.84;121315;1154;22938;-79
2020/12/29 10:28:20;;;;;;;17.17;5.50;;;;;;;5.42;77.10;97780.46;120693;1154;22968;-78
2020/12/29 10:30:51;;;;;;;18.73;5.67;;;;;;;5.45;76.78;97782.97;120825;1154;22967;-81
2020/12/29 10:33:21;;;;;;;14.77;3.60;;;;;;;5.47;76.06;97780.45;122009;1153;22917;-77
2020/12/29 10:35:51;;;;;;;11.80;2.75;;;;;;;5.50;76.14;97784.23;120493;1154;22967;-78
2020/12/29 10:38:20;;;;;;;13.13;2.98;;;;;;;5.53;75.55;97786.73;120435;1154;27633;-77
2020/12/29 10:40:50;;;;;;;14.93;3.63;;;;;;;5.56;75.76;97798.81;120373;1154;22908;-78
2020/12/29 10:43:19;;;;;;;11.65;2.60;;;;;;;5.56;75.25;97794.04;120577;1154;26133;-77
2020/12/29 10:45:49;;;;;;;12.17;2.70;;;;;;;5.55;75.21;97805.59;120469;1154;23049;-77
2020/12/29 10:48:18;;;;;;;10.40;2.53;;;;;;;5.54;74.72;97795.80;120339;1154;22949;-77
2020/12/29 10:50:47;;;;;;;9.83;2.37;;;;;;;5.54;75.19;97807.63;120223;1154;22984;-77
2020/12/29 10:53:16;;;;;;;9.97;2.20;;;;;;;5.55;75.25;97800.06;120834;1154;23454;-78
2020/12/29 10:55:46;;;;;;;12.53;2.47;;;;;;;5.55;75.25;97811.13;121685;1154;22947;-77
2020/12/29 10:58:16;;;;;;;12.37;2.50;;;;;;;5.58;75.22;97810.13;122229;1154;22888;-78
2020/12/29 11:00:49;;;;;;;9.80;2.35;;;;;;;5.58;74.76;97816.43;122200;1154;22852;-79
2020/12/29 11:03:18;;;;;;;9.90;2.60;;;;;;;5.62;74.92;97807.87;122584;1154;25422;-79
2020/12/29 11:05:47;;;;;;;13.63;2.93;;;;;;;5.64;75.04;97811.64;121936;1154;22920;-79
2020/12/29 11:08:17;;;;;;;13.27;2.63;;;;;;;5.66;74.66;97806.36;120849;1157;22890;-79
2020/12/29 11:10:49;;;;;;;12.00;3.03;;;;;;;5.68;74.80;97805.84;120799;1154;22882;-79
2020/12/29 11:13:18;;;;;;;14.97;3.40;;;;;;;5.71;74.40;97819.42;120599;1154;26511;-79
2020/12/29 11:15:50;;;;;;;10.70;2.27;;;;;;;5.73;74.00;97827.98;120607;1154;23002;-79
2020/12/29 11:18:21;;;;;;;11.73;2.67;;;;;;;5.74;74.23;97825.97;120475;1154;22904;-78
2020/12/29 11:20:52;;;;;;;11.03;2.50;;;;;;;5.74;74.21;97832.27;120368;1154;22995;-78
2020/12/29 11:23:22;;;;;;;12.33;2.33;;;;;;;5.74;73.59;97828.74;120320;1154;22981;-78
2020/12/29 11:25:51;;;;;;;10.83;2.10;;;;;;;5.73;73.47;97835.55;120552;1154;23032;-78
2020/12/29 11:28:20;;;;;;;10.97;2.63;;;;;;;5.75;73.90;97844.11;120921;1154;23059;-79
2020/12/29 11:30:49;;;;;;;11.23;2.80;;;;;;;5.75;73.63;97855.91;121310;1154;22932;-79
2020/12/29 11:33:18;;;;;;;17.05;3.85;;;;;;;5.77;73.79;97851.91;121196;1154;22908;-78
2020/12/29 11:35:48;;;;;;;11.25;3.10;;;;;;;5.76;73.65;97856.67;120424;1154;22967;-78
2020/12/29 11:38:18;;;;;;;13.98;3.65;;;;;;;5.72;73.89;97856.17;121059;1154;24546;-78
2020/12/29 11:40:46;;;;;;;;;;;;;;;5.68;73.88;97863.98;120850;1154;26382;-78
2020/12/29 11:43:16;;;;;;;14.15;3.95;;;;;;;5.64;72.81;97855.94;120310;1154;21577;-78
2020/12/29 11:45:45;;;;;;;11.00;2.95;;;;;;;5.63;73.88;97859.95;120427;1154;26086;-79
2020/12/29 11:48:14;;;;;;;9.80;2.00;;;;;;;5.66;73.18;97861.72;120335;1154;23070;-78
2020/12/29 11:50:43;;;;;;;6.57;1.37;;;;;;;5.70;73.33;97873.30;121034;1154;22936;-78